createdAt,value
2022-08-22T00:01:10.754Z,34.79
2022-08-22T00:02:39.671Z,34.79
2022-08-22T00:02:45.721Z,33.16
2022-08-22T00:02:47.978Z,32.21
2022-08-22T00:03:15.795Z,34.88
2022-08-22T00:04:06.467Z,34.51
2022-08-22T00:05:46.449Z,34.35
2022-08-22T00:07:13.478Z,34.51
2022-08-22T00:08:28.113Z,34.72
2022-08-22T00:09:56.290Z,34.65
2022-08-22T00:11:16.001Z,34.57
2022-08-22T00:12:48.374Z,34.58
2022-08-22T00:14:01.847Z,34.46
2022-08-22T00:15:31.574Z,34.38
2022-08-22T00:16:57.893Z,34.43
2022-08-22T00:18:41.217Z,34.45
2022-08-22T00:20:04.419Z,34.21
2022-08-22T00:21:58.917Z,34.29
2022-08-22T00:23:18.738Z,34.39
2022-08-22T00:24:34.853Z,34.41
2022-08-22T00:25:58.758Z,34.36
2022-08-22T00:27:12.427Z,34.42
2022-08-22T00:28:25.609Z,34.40
2022-08-22T00:29:51.781Z,34.38
2022-08-22T00:31:37.838Z,34.31
2022-08-22T00:32:52.716Z,34.12
2022-08-22T00:34:26.441Z,34.14
2022-08-22T00:35:44.843Z,34.13
2022-08-22T00:36:55.698Z,34.05
2022-08-22T00:38:10.849Z,33.93
2022-08-22T00:39:27.097Z,33.81
2022-08-22T00:40:46.579Z,33.53
2022-08-22T00:42:16.104Z,33.30
2022-08-22T00:43:51.200Z,33.04
2022-08-22T00:45:29.128Z,33.11
2022-08-22T00:46:42.409Z,32.70
2022-08-22T00:47:53.827Z,32.77
2022-08-22T00:49:33.367Z,32.65
2022-08-22T00:50:50.427Z,32.63
2022-08-22T00:52:06.191Z,32.70
2022-08-22T00:53:49.459Z,32.85
2022-08-22T00:55:25.856Z,33.03
2022-08-22T00:56:45.993Z,32.86
2022-08-22T00:58:25.387Z,32.71
2022-08-22T00:59:58.807Z,32.54
2022-08-22T01:01:11.957Z,32.55
2022-08-22T01:02:57.142Z,32.58
2022-08-22T01:04:26.991Z,32.76
2022-08-22T01:05:47.439Z,32.97
2022-08-22T01:07:05.488Z,32.86
2022-08-22T01:08:19.712Z,32.85
2022-08-22T01:10:05.561Z,32.78
2022-08-22T01:11:31.399Z,32.59
2022-08-22T01:12:55.888Z,32.58
2022-08-22T01:14:34.387Z,32.55
2022-08-22T01:15:42.502Z,32.55
2022-08-22T01:17:02.565Z,32.54
2022-08-22T01:18:20.712Z,32.59
2022-08-22T01:19:46.480Z,32.69
2022-08-22T01:21:20.710Z,32.75
2022-08-22T01:22:52.417Z,32.80
2022-08-22T01:24:17.698Z,32.68
2022-08-22T01:25:41.628Z,32.69
2022-08-22T01:27:06.481Z,32.42
2022-08-22T01:28:23.208Z,32.33
2022-08-22T01:29:58.021Z,32.21
2022-08-22T01:31:36.223Z,31.97
2022-08-22T01:32:59.836Z,31.80
2022-08-22T01:34:32.993Z,31.85
2022-08-22T01:36:16.994Z,31.76
2022-08-22T01:37:54.937Z,31.64
2022-08-22T01:39:27.370Z,31.51
2022-08-22T01:40:53.365Z,31.46
2022-08-22T01:42:38.721Z,31.48
2022-08-22T01:44:27.853Z,31.60
2022-08-22T01:45:59.419Z,31.51
2022-08-22T01:47:26.090Z,31.63
2022-08-22T01:48:47.931Z,31.48
2022-08-22T01:50:02.244Z,31.31
2022-08-22T01:51:42.891Z,31.04
2022-08-22T01:53:04.252Z,30.76
2022-08-22T01:54:31.669Z,30.76
2022-08-22T01:55:41.512Z,30.71
2022-08-22T01:56:49.795Z,30.61
2022-08-22T01:58:00.852Z,30.60
2022-08-22T01:59:17.624Z,30.49
2022-08-22T02:00:35.093Z,30.28
2022-08-22T02:01:54.239Z,30.14
2022-08-22T02:03:11.910Z,30.02
2022-08-22T02:04:20.728Z,29.89
2022-08-22T02:05:48.959Z,29.79
2022-08-22T02:07:03.225Z,29.71
2022-08-22T02:08:51.753Z,29.56
2022-08-22T02:10:18.766Z,29.33
2022-08-22T02:11:55.328Z,29.13
2022-08-22T02:13:21.860Z,28.86
2022-08-22T02:14:36.102Z,28.64
2022-08-22T02:16:07.837Z,28.34
2022-08-22T02:17:25.080Z,28.04
2022-08-22T02:18:51.434Z,27.88
2022-08-22T02:20:51.487Z,27.64
2022-08-22T02:22:31.550Z,27.37
2022-08-22T02:23:57.008Z,27.17
2022-08-22T02:25:27.191Z,27.03
2022-08-22T02:26:56.647Z,26.85
2022-08-22T02:28:10.831Z,26.72
2022-08-22T02:29:32.029Z,26.61
2022-08-22T02:30:53.980Z,26.49
2022-08-22T02:32:37.131Z,26.38
2022-08-22T02:34:00.354Z,26.21
2022-08-22T02:35:16.008Z,26.10
2022-08-22T02:36:34.906Z,26.00
2022-08-22T02:38:00.420Z,25.93
2022-08-22T02:39:42.329Z,25.83
2022-08-22T02:41:14.781Z,25.75
2022-08-22T02:42:26.157Z,25.68
2022-08-22T02:43:42.773Z,25.62
2022-08-22T02:45:16.070Z,25.56
2022-08-22T02:46:48.969Z,25.48
2022-08-22T02:48:02.348Z,25.40
2022-08-22T02:49:29.517Z,25.34
2022-08-22T02:50:41.505Z,25.28
2022-08-22T02:52:03.541Z,25.24
2022-08-22T02:53:31.843Z,25.18
2022-08-22T02:55:09.326Z,25.12
2022-08-22T02:56:34.618Z,25.06
2022-08-22T02:57:47.177Z,24.99
2022-08-22T02:59:16.890Z,24.94
2022-08-22T03:00:33.380Z,24.89
2022-08-22T03:01:43.534Z,24.83
2022-08-22T03:03:21.798Z,24.80
2022-08-22T03:04:48.818Z,24.75
2022-08-22T03:06:02.192Z,24.70
2022-08-22T03:07:32.322Z,24.67
2022-08-22T03:08:47.592Z,24.61
2022-08-22T03:10:17.858Z,24.56
2022-08-22T03:11:33.911Z,24.50
2022-08-22T03:13:11.572Z,24.46
2022-08-22T03:14:36.974Z,24.41
2022-08-22T03:16:06.090Z,24.38
2022-08-22T03:17:30.851Z,24.35
2022-08-22T03:19:14.873Z,24.32
2022-08-22T03:21:00.728Z,24.29
2022-08-22T03:22:23.933Z,24.23
2022-08-22T03:23:42.580Z,24.18
2022-08-22T03:25:18.002Z,24.15
2022-08-22T03:26:35.571Z,24.11
2022-08-22T03:27:49.482Z,24.08
2022-08-22T03:29:10.338Z,24.06
2022-08-22T03:30:31.266Z,24.02
2022-08-22T03:31:39.392Z,23.97
2022-08-22T03:33:21.207Z,23.94
2022-08-22T03:34:29.820Z,23.89
2022-08-22T03:35:47.040Z,23.86
2022-08-22T03:37:27.261Z,23.83
2022-08-22T03:38:35.365Z,23.79
2022-08-22T03:40:03.761Z,23.76
2022-08-22T03:41:33.202Z,23.72
2022-08-22T03:43:01.703Z,23.69
2022-08-22T03:44:25.870Z,23.67
2022-08-22T03:45:45.440Z,23.62
2022-08-22T03:47:30.805Z,23.59
2022-08-22T03:49:08.340Z,23.53
2022-08-22T03:50:42.160Z,23.48
2022-08-22T03:52:07.926Z,23.45
2022-08-22T03:53:26.818Z,23.41
2022-08-22T03:54:51.759Z,23.39
2022-08-22T03:56:28.972Z,23.36
2022-08-22T03:58:00.670Z,23.32
2022-08-22T03:59:28.417Z,23.29
2022-08-22T04:00:40.635Z,23.26
2022-08-22T04:02:03.618Z,23.24
2022-08-22T04:04:05.538Z,23.20
2022-08-22T04:05:52.830Z,23.16
2022-08-22T04:07:38.088Z,23.13
2022-08-22T04:09:20.157Z,23.09
2022-08-22T04:11:03.839Z,23.06
2022-08-22T04:12:33.637Z,23.02
2022-08-22T04:13:46.790Z,22.98
2022-08-22T04:15:10.911Z,22.95
2022-08-22T04:16:42.557Z,22.92
2022-08-22T04:18:20.034Z,22.89
2022-08-22T04:20:13.636Z,22.85
2022-08-22T04:21:38.216Z,22.82
2022-08-22T04:23:30.458Z,22.79
2022-08-22T04:24:52.163Z,22.75
2022-08-22T04:26:12.163Z,22.71
2022-08-22T04:27:41.678Z,22.69
2022-08-22T04:28:55.901Z,22.66
2022-08-22T04:30:09.342Z,22.63
2022-08-22T04:31:19.798Z,22.62
2022-08-22T04:32:53.366Z,22.61
2022-08-22T04:34:04.551Z,22.60
2022-08-22T04:35:19.225Z,22.59
2022-08-22T04:36:47.643Z,22.57
2022-08-22T04:38:26.500Z,22.54
2022-08-22T04:39:44.076Z,22.50
2022-08-22T04:41:26.003Z,22.47
2022-08-22T04:43:02.019Z,22.44
2022-08-22T04:44:30.249Z,22.41
2022-08-22T04:45:42.341Z,22.39
2022-08-22T04:47:04.258Z,22.37
2022-08-22T04:48:18.867Z,22.35
2022-08-22T04:49:32.720Z,22.32
2022-08-22T04:51:07.718Z,22.29
2022-08-22T04:52:34.474Z,22.29
2022-08-22T04:54:01.228Z,22.26
2022-08-22T04:55:34.647Z,22.23
2022-08-22T04:56:49.107Z,22.19
2022-08-22T04:58:18.168Z,22.15
2022-08-22T04:59:26.573Z,22.14
2022-08-22T05:00:46.667Z,22.11
2022-08-22T05:01:58.958Z,22.09
2022-08-22T05:03:06.812Z,22.07
2022-08-22T05:04:23.285Z,22.07
2022-08-22T05:05:35.641Z,22.06
2022-08-22T05:06:46.327Z,22.05
2022-08-22T05:07:59.210Z,22.03
2022-08-22T05:09:15.498Z,22.02
2022-08-22T05:10:25.821Z,21.99
2022-08-22T05:11:34.007Z,21.96
2022-08-22T05:13:02.290Z,21.94
2022-08-22T05:14:27.448Z,21.90
2022-08-22T05:15:40.222Z,21.87
2022-08-22T05:16:51.109Z,21.85
2022-08-22T05:18:01.609Z,21.83
2022-08-22T05:19:27.042Z,21.80
2022-08-22T05:20:37.038Z,21.77
2022-08-22T05:21:44.894Z,21.74
2022-08-22T05:22:59.121Z,21.73
2022-08-22T05:24:11.276Z,21.72
2022-08-22T05:25:23.748Z,21.70
2022-08-22T05:26:32.226Z,21.70
2022-08-22T05:27:45.509Z,21.66
2022-08-22T05:28:56.550Z,21.64
2022-08-22T05:30:10.959Z,21.62
2022-08-22T05:31:23.447Z,21.59
2022-08-22T05:32:56.872Z,21.57
2022-08-22T05:34:19.718Z,21.53
2022-08-22T05:35:51.591Z,21.50
2022-08-22T05:37:33.707Z,21.49
2022-08-22T05:38:52.070Z,21.46
2022-08-22T05:40:01.172Z,21.46
2022-08-22T05:41:13.536Z,21.44
2022-08-22T05:42:30.248Z,21.41
2022-08-22T05:43:42.982Z,21.40
2022-08-22T05:44:50.471Z,21.37
2022-08-22T05:45:59.342Z,21.34
2022-08-22T05:47:17.047Z,21.34
2022-08-22T05:48:33.969Z,21.30
2022-08-22T05:50:05.446Z,21.30
2022-08-22T05:51:20.532Z,21.26
2022-08-22T05:53:01.064Z,21.24
2022-08-22T05:54:16.611Z,21.22
2022-08-22T05:55:57.917Z,21.19
2022-08-22T05:57:34.007Z,21.15
2022-08-22T05:58:45.250Z,21.12
2022-08-22T05:59:56.595Z,21.12
2022-08-22T06:01:27.138Z,21.09
2022-08-22T06:02:59.441Z,21.06
2022-08-22T06:04:24.837Z,21.04
2022-08-22T06:05:34.322Z,21.01
2022-08-22T06:07:06.640Z,20.99
2022-08-22T06:08:25.189Z,20.95
2022-08-22T06:09:55.154Z,20.94
2022-08-22T06:11:33.800Z,20.92
2022-08-22T06:12:45.057Z,20.90
2022-08-22T06:14:05.444Z,20.88
2022-08-22T06:15:48.497Z,20.86
2022-08-22T06:17:17.668Z,20.84
2022-08-22T06:18:28.095Z,20.82
2022-08-22T06:19:38.564Z,20.80
2022-08-22T06:20:55.609Z,20.79
2022-08-22T06:22:03.134Z,20.77
2022-08-22T06:23:13.165Z,20.73
2022-08-22T06:24:27.039Z,20.71
2022-08-22T06:25:37.528Z,20.70
2022-08-22T06:26:48.696Z,20.71
2022-08-22T06:27:57.611Z,20.69
2022-08-22T06:29:06.149Z,20.66
2022-08-22T06:30:15.550Z,20.63
2022-08-22T06:31:44.126Z,20.63
2022-08-22T06:32:58.964Z,20.61
2022-08-22T06:34:11.780Z,20.59
2022-08-22T06:35:54.398Z,20.59
2022-08-22T06:37:03.839Z,20.57
2022-08-22T06:38:13.797Z,20.56
2022-08-22T06:39:32.947Z,20.54
2022-08-22T06:40:41.937Z,20.51
2022-08-22T06:42:14.533Z,20.50
2022-08-22T06:43:26.003Z,20.48
2022-08-22T06:44:37.846Z,20.45
2022-08-22T06:45:45.253Z,20.43
2022-08-22T06:46:55.649Z,20.41
2022-08-22T06:48:17.175Z,20.40
2022-08-22T06:49:26.014Z,20.39
2022-08-22T06:50:41.974Z,20.38
2022-08-22T06:51:50.216Z,20.36
2022-08-22T06:53:22.488Z,20.34
2022-08-22T06:54:34.531Z,20.30
2022-08-22T06:55:44.650Z,20.29
2022-08-22T06:56:54.256Z,20.30
2022-08-22T06:58:07.049Z,20.30
2022-08-22T06:59:20.140Z,20.28
2022-08-22T07:00:30.007Z,20.26
2022-08-22T07:01:44.690Z,20.26
2022-08-22T07:02:56.555Z,20.25
2022-08-22T07:04:08.525Z,20.25
2022-08-22T07:05:25.211Z,20.27
2022-08-22T07:06:40.577Z,20.23
2022-08-22T07:07:48.658Z,20.21
2022-08-22T07:08:58.770Z,20.20
2022-08-22T07:10:06.831Z,20.17
2022-08-22T07:11:19.073Z,20.17
2022-08-22T07:12:31.979Z,20.18
2022-08-22T07:13:40.219Z,20.17
2022-08-22T07:14:53.370Z,20.16
2022-08-22T07:16:01.260Z,20.17
2022-08-22T07:17:09.960Z,20.15
2022-08-22T07:18:21.543Z,20.15
2022-08-22T07:19:35.695Z,20.15
2022-08-22T07:20:47.219Z,20.13
2022-08-22T07:21:54.850Z,20.11
2022-08-22T07:23:04.816Z,20.10
2022-08-22T07:24:12.128Z,20.09
2022-08-22T07:25:19.379Z,20.08
2022-08-22T07:26:35.769Z,20.08
2022-08-22T07:28:04.093Z,20.06
2022-08-22T07:29:44.236Z,20.02
2022-08-22T07:30:59.331Z,20.01
2022-08-22T07:32:43.206Z,20.00
2022-08-22T07:33:57.321Z,19.97
2022-08-22T07:35:15.310Z,19.96
2022-08-22T07:36:27.360Z,19.95
2022-08-22T07:37:50.154Z,19.93
2022-08-22T07:39:21.534Z,19.93
2022-08-22T07:40:36.328Z,19.90
2022-08-22T07:42:02.109Z,19.89
2022-08-22T07:43:30.252Z,19.88
2022-08-22T07:45:13.141Z,19.87
2022-08-22T07:46:37.490Z,19.84
2022-08-22T07:48:05.760Z,19.84
2022-08-22T07:49:24.171Z,19.83
2022-08-22T07:50:45.204Z,19.83
2022-08-22T07:51:54.741Z,19.82
2022-08-22T07:53:27.591Z,19.79
2022-08-22T07:55:03.001Z,19.78
2022-08-22T07:56:14.619Z,19.76
2022-08-22T07:57:41.301Z,19.74
2022-08-22T07:58:50.000Z,19.72
2022-08-22T07:59:57.981Z,19.71
2022-08-22T08:01:05.211Z,19.71
2022-08-22T08:02:13.781Z,19.69
2022-08-22T08:03:23.332Z,19.67
2022-08-22T08:04:40.049Z,19.65
2022-08-22T08:05:48.428Z,19.67
2022-08-22T08:06:57.081Z,19.67
2022-08-22T08:08:15.522Z,19.63
2022-08-22T08:09:23.124Z,19.60
2022-08-22T08:10:36.611Z,19.58
2022-08-22T08:11:43.788Z,19.57
2022-08-22T08:13:02.282Z,19.56
2022-08-22T08:14:10.452Z,19.55
2022-08-22T08:15:23.370Z,19.55
2022-08-22T08:16:32.700Z,19.54
2022-08-22T08:17:39.922Z,19.51
2022-08-22T08:18:48.381Z,19.49
2022-08-22T08:19:55.402Z,19.49
2022-08-22T08:21:05.346Z,19.49
2022-08-22T08:22:18.977Z,19.47
2022-08-22T08:23:28.681Z,19.47
2022-08-22T08:24:42.142Z,19.46
2022-08-22T08:26:17.034Z,19.47
2022-08-22T08:27:44.497Z,19.44
2022-08-22T08:29:00.521Z,19.42
2022-08-22T08:30:16.410Z,19.40
2022-08-22T08:31:38.127Z,19.38
2022-08-22T08:32:57.445Z,19.35
2022-08-22T08:34:27.580Z,19.32
2022-08-22T08:35:42.305Z,19.32
2022-08-22T08:37:16.247Z,19.31
2022-08-22T08:38:30.139Z,19.30
2022-08-22T08:39:44.917Z,19.29
2022-08-22T08:41:13.943Z,19.29
2022-08-22T08:43:10.981Z,19.27
2022-08-22T08:44:37.583Z,19.25
2022-08-22T08:46:13.297Z,19.23
2022-08-22T08:47:33.081Z,19.20
2022-08-22T08:49:17.648Z,19.19
2022-08-22T08:50:52.046Z,19.16
2022-08-22T08:52:31.222Z,19.12
2022-08-22T08:54:00.240Z,19.10
2022-08-22T08:55:45.835Z,19.09
2022-08-22T08:57:25.980Z,19.08
2022-08-22T08:58:51.084Z,19.06
2022-08-22T09:00:23.123Z,19.05
2022-08-22T09:01:49.385Z,19.03
2022-08-22T09:03:15.655Z,19.03
2022-08-22T09:04:51.057Z,19.02
2022-08-22T09:06:02.873Z,19.01
2022-08-22T09:07:20.761Z,19.00
2022-08-22T09:08:50.681Z,19.00
2022-08-22T09:10:27.441Z,19.00
2022-08-22T09:12:15.812Z,19.00
2022-08-22T09:13:50.217Z,18.97
2022-08-22T09:15:02.003Z,18.96
2022-08-22T09:16:38.216Z,18.96
2022-08-22T09:18:00.411Z,18.95
2022-08-22T09:19:30.550Z,18.94
2022-08-22T09:21:02.617Z,18.93
2022-08-22T09:24:20.877Z,18.91
2022-08-22T09:25:52.254Z,18.91
2022-08-22T09:27:08.977Z,18.90
2022-08-22T09:28:34.583Z,18.90
2022-08-22T09:29:51.691Z,18.88
2022-08-22T09:31:16.795Z,18.87
2022-08-22T09:33:03.261Z,18.85
2022-08-22T09:34:31.535Z,18.83
2022-08-22T09:35:50.924Z,18.82
2022-08-22T09:37:24.285Z,18.83
2022-08-22T09:39:20.919Z,18.82
2022-08-22T09:40:33.022Z,18.79
2022-08-22T09:42:00.874Z,18.80
2022-08-22T09:43:21.089Z,18.79
2022-08-22T09:44:39.465Z,18.76
2022-08-22T09:46:02.288Z,18.73
2022-08-22T09:47:09.736Z,18.72
2022-08-22T09:48:23.850Z,18.70
2022-08-22T09:49:47.624Z,18.69
2022-08-22T09:51:33.083Z,18.67
2022-08-22T09:53:02.412Z,18.65
2022-08-22T09:54:12.649Z,18.66
2022-08-22T09:55:41.114Z,18.66
2022-08-22T09:57:09.503Z,18.63
2022-08-22T09:58:41.756Z,18.62
2022-08-22T10:00:26.821Z,18.62
2022-08-22T10:02:15.545Z,18.62
2022-08-22T10:03:51.674Z,18.62
2022-08-22T10:05:35.238Z,18.62
2022-08-22T10:07:25.845Z,18.61
2022-08-22T10:09:08.941Z,18.61
2022-08-22T10:10:27.336Z,18.61
2022-08-22T10:11:45.284Z,18.61
2022-08-22T10:13:29.771Z,18.64
2022-08-22T10:15:17.662Z,18.63
2022-08-22T10:16:38.355Z,18.61
2022-08-22T10:18:10.325Z,18.61
2022-08-22T10:19:44.769Z,18.58
2022-08-22T10:21:15.052Z,18.55
2022-08-22T10:22:29.768Z,18.52
2022-08-22T10:23:58.213Z,18.51
2022-08-22T10:25:11.613Z,18.50
2022-08-22T10:26:38.974Z,18.50
2022-08-22T10:28:02.183Z,18.49
2022-08-22T10:29:34.432Z,18.48
2022-08-22T10:30:47.394Z,18.46
2022-08-22T10:32:27.170Z,18.45
2022-08-22T10:33:44.303Z,18.44
2022-08-22T10:34:52.572Z,18.43
2022-08-22T10:36:11.971Z,18.42
2022-08-22T10:37:46.143Z,18.40
2022-08-22T10:38:57.874Z,18.38
2022-08-22T10:40:31.783Z,18.36
2022-08-22T10:42:03.203Z,18.33
2022-08-22T10:43:43.891Z,18.33
2022-08-22T10:45:24.087Z,18.34
2022-08-22T10:46:56.331Z,18.34
2022-08-22T10:48:09.030Z,18.35
2022-08-22T10:49:37.308Z,18.35
2022-08-22T10:50:51.173Z,18.36
2022-08-22T10:52:16.200Z,18.38
2022-08-22T10:53:44.245Z,18.38
2022-08-22T10:54:55.063Z,18.39
2022-08-22T10:56:27.881Z,18.40
2022-08-22T10:57:52.080Z,18.42
2022-08-22T10:59:24.212Z,18.43
2022-08-22T11:00:46.425Z,18.43
2022-08-22T11:02:20.373Z,18.41
2022-08-22T11:03:58.154Z,18.42
2022-08-22T11:05:19.211Z,18.42
2022-08-22T11:06:29.653Z,18.40
2022-08-22T11:07:57.445Z,18.41
2022-08-22T11:09:16.366Z,18.41
2022-08-22T11:10:50.565Z,18.41
2022-08-22T11:12:26.692Z,18.39
2022-08-22T11:14:04.423Z,18.38
2022-08-22T11:15:52.352Z,18.38
2022-08-22T11:17:30.209Z,18.38
2022-08-22T11:19:15.122Z,18.38
2022-08-22T11:20:44.722Z,18.36
2022-08-22T11:22:22.537Z,18.34
2022-08-22T11:23:41.603Z,18.33
2022-08-22T11:25:38.768Z,18.34
2022-08-22T11:26:50.370Z,18.34
2022-08-22T11:28:03.433Z,18.34
2022-08-22T11:29:26.674Z,18.35
2022-08-22T11:30:47.994Z,18.34
2022-08-22T11:32:10.832Z,18.36
2022-08-22T11:33:46.663Z,18.35
2022-08-22T11:34:55.685Z,18.35
2022-08-22T11:36:12.170Z,18.35
2022-08-22T11:37:42.700Z,18.36
2022-08-22T11:39:44.653Z,18.35
2022-08-22T11:41:16.945Z,18.34
2022-08-22T11:42:47.700Z,18.34
2022-08-22T11:44:08.110Z,18.34
2022-08-22T11:45:20.233Z,18.32
2022-08-22T11:46:39.250Z,18.32
2022-08-22T11:48:03.289Z,18.33
2022-08-22T11:49:21.223Z,18.32
2022-08-22T11:50:38.794Z,18.32
2022-08-22T11:52:04.993Z,18.31
2022-08-22T11:53:27.817Z,18.32
2022-08-22T11:55:00.253Z,18.32
2022-08-22T11:56:28.704Z,18.32
2022-08-22T11:58:08.603Z,18.32
2022-08-22T11:59:25.221Z,18.33
2022-08-22T12:00:50.073Z,18.32
2022-08-22T12:02:03.915Z,18.33
2022-08-22T12:03:23.193Z,18.34
2022-08-22T12:04:45.503Z,18.35
2022-08-22T12:05:53.782Z,18.36
2022-08-22T12:07:24.932Z,18.37
2022-08-22T12:08:32.377Z,18.38
2022-08-22T12:09:41.806Z,18.40
2022-08-22T12:11:08.785Z,18.41
2022-08-22T12:13:03.888Z,18.42
2022-08-22T12:14:20.815Z,18.42
2022-08-22T12:15:53.982Z,18.41
2022-08-22T12:17:55.116Z,18.40
2022-08-22T12:19:09.963Z,18.38
2022-08-22T12:20:23.805Z,18.37
2022-08-22T12:22:00.046Z,18.38
2022-08-22T12:23:30.036Z,18.37
2022-08-22T12:25:07.088Z,18.37
2022-08-22T12:26:32.701Z,18.38
2022-08-22T12:27:50.969Z,18.36
2022-08-22T12:29:34.055Z,18.36
2022-08-22T12:31:12.737Z,18.36
2022-08-22T12:32:34.899Z,18.33
2022-08-22T12:33:44.767Z,18.31
2022-08-22T12:35:32.383Z,18.30
2022-08-22T12:36:56.602Z,18.28
2022-08-22T12:38:28.277Z,18.26
2022-08-22T12:39:43.825Z,18.25
2022-08-22T12:41:28.079Z,18.24
2022-08-22T12:43:01.024Z,18.21
2022-08-22T12:44:29.145Z,18.17
2022-08-22T12:45:44.677Z,18.14
2022-08-22T12:47:26.973Z,18.13
2022-08-22T12:48:58.857Z,18.10
2022-08-22T12:50:31.987Z,18.08
2022-08-22T12:52:04.730Z,18.06
2022-08-22T12:53:26.327Z,18.02
2022-08-22T12:54:54.683Z,17.99
2022-08-22T12:56:16.105Z,17.97
2022-08-22T12:57:54.139Z,17.96
2022-08-22T12:59:31.735Z,17.94
2022-08-22T13:00:48.793Z,17.93
2022-08-22T13:01:58.429Z,17.93
2022-08-22T13:03:36.665Z,17.92
2022-08-22T13:05:19.553Z,17.93
2022-08-22T13:06:54.215Z,17.94
2022-08-22T13:08:05.160Z,17.94
2022-08-22T13:09:28.837Z,17.93
2022-08-22T13:10:49.161Z,17.94
2022-08-22T13:11:59.355Z,17.96
2022-08-22T13:13:12.100Z,17.97
2022-08-22T13:14:25.953Z,17.98
2022-08-22T13:15:39.401Z,17.98
2022-08-22T13:16:51.712Z,17.99
2022-08-22T13:18:25.258Z,18.00
2022-08-22T13:19:37.872Z,18.00
2022-08-22T13:20:46.093Z,18.00
2022-08-22T13:22:20.826Z,18.01
2022-08-22T13:23:34.311Z,18.02
2022-08-22T13:25:00.500Z,18.03
2022-08-22T13:26:33.453Z,18.03
2022-08-22T13:28:02.288Z,18.05
2022-08-22T13:29:26.802Z,18.07
2022-08-22T13:30:39.002Z,18.09
2022-08-22T13:31:46.019Z,18.10
2022-08-22T13:33:05.283Z,18.13
2022-08-22T13:34:34.789Z,18.17
2022-08-22T13:35:57.465Z,18.20
2022-08-22T13:37:04.851Z,18.23
2022-08-22T13:38:36.654Z,18.30
2022-08-22T13:39:46.919Z,18.38
2022-08-22T13:41:00.246Z,18.47
2022-08-22T13:42:14.621Z,18.55
2022-08-22T13:43:56.461Z,18.59
2022-08-22T13:45:06.445Z,18.63
2022-08-22T13:46:14.073Z,18.71
2022-08-22T13:47:24.462Z,18.80
2022-08-22T13:48:52.643Z,18.89
2022-08-22T13:50:20.354Z,19.03
2022-08-22T13:51:41.493Z,19.15
2022-08-22T13:52:57.840Z,19.26
2022-08-22T13:54:20.696Z,19.36
2022-08-22T13:55:35.530Z,19.49
2022-08-22T13:56:50.708Z,19.61
2022-08-22T13:58:07.678Z,19.71
2022-08-22T13:59:49.571Z,19.83
2022-08-22T14:01:09.644Z,20.00
2022-08-22T14:02:30.930Z,20.07
2022-08-22T14:04:34.609Z,20.10
2022-08-22T14:06:06.236Z,20.16
2022-08-22T14:07:53.001Z,20.21
2022-08-22T14:09:31.996Z,20.30
2022-08-22T14:10:42.636Z,20.48
2022-08-22T14:11:57.813Z,20.73
2022-08-22T14:13:19.032Z,21.00
2022-08-22T14:14:32.479Z,21.28
2022-08-22T14:15:45.203Z,21.53
2022-08-22T14:16:54.773Z,21.73
2022-08-22T14:18:11.925Z,21.90
2022-08-22T14:19:52.670Z,22.04
2022-08-22T14:21:33.472Z,22.16
2022-08-22T14:23:03.864Z,22.41
2022-08-22T14:24:19.473Z,22.63
2022-08-22T14:25:28.013Z,22.81
2022-08-22T14:26:47.449Z,22.93
2022-08-22T14:28:06.349Z,23.02
2022-08-22T14:29:18.022Z,23.04
2022-08-22T14:30:33.133Z,23.04
2022-08-22T14:31:41.242Z,23.09
2022-08-22T14:33:07.633Z,23.16
2022-08-22T14:34:16.117Z,23.22
2022-08-22T14:35:34.718Z,23.36
2022-08-22T14:36:48.133Z,23.46
2022-08-22T14:37:56.804Z,23.61
2022-08-22T14:39:12.574Z,23.79
2022-08-22T14:40:30.513Z,23.88
2022-08-22T14:41:55.543Z,23.94
2022-08-22T14:43:10.046Z,23.98
2022-08-22T14:44:24.335Z,24.09
2022-08-22T14:45:36.942Z,24.25
2022-08-22T14:46:58.577Z,24.37
2022-08-22T14:48:29.584Z,24.51
2022-08-22T14:49:52.833Z,24.62
2022-08-22T14:51:08.598Z,24.76
2022-08-22T14:52:30.273Z,24.80
2022-08-22T14:53:40.425Z,24.68
2022-08-22T14:54:48.635Z,24.64
2022-08-22T14:56:07.749Z,24.63
2022-08-22T14:57:20.102Z,24.57
2022-08-22T14:58:29.532Z,24.60
2022-08-22T14:59:47.054Z,24.55
2022-08-22T15:00:59.664Z,24.52
2022-08-22T15:02:16.052Z,24.54
2022-08-22T15:03:35.204Z,24.62
2022-08-22T15:05:05.415Z,24.69
2022-08-22T15:06:31.850Z,24.76
2022-08-22T15:07:40.961Z,24.83
2022-08-22T15:08:53.590Z,24.96
2022-08-22T15:10:21.504Z,25.02
2022-08-22T15:11:33.923Z,24.99
2022-08-22T15:12:51.001Z,24.99
2022-08-22T15:13:59.521Z,25.12
2022-08-22T15:15:41.262Z,25.19
2022-08-22T15:17:01.929Z,25.20
2022-08-22T15:18:20.577Z,25.23
2022-08-22T15:19:41.178Z,25.39
2022-08-22T15:20:52.224Z,25.52
2022-08-22T15:22:21.310Z,25.73
2022-08-22T15:23:34.488Z,26.02
2022-08-22T15:25:29.318Z,26.42
2022-08-22T15:26:52.320Z,26.72
2022-08-22T15:28:07.853Z,26.79
2022-08-22T15:29:29.006Z,26.78
2022-08-22T15:30:44.285Z,26.78
2022-08-22T15:31:57.164Z,26.72
2022-08-22T15:33:25.819Z,26.64
2022-08-22T15:34:34.521Z,26.82
2022-08-22T15:35:43.604Z,26.90
2022-08-22T15:37:20.452Z,26.92
2022-08-22T15:38:36.930Z,27.01
2022-08-22T15:40:08.125Z,27.10
2022-08-22T15:41:36.607Z,27.11
2022-08-22T15:42:48.111Z,26.98
2022-08-22T15:44:30.974Z,26.89
2022-08-22T15:45:41.583Z,26.80
2022-08-22T15:47:23.981Z,26.80
2022-08-22T15:48:40.391Z,26.96
2022-08-22T15:49:58.091Z,26.99
2022-08-22T15:51:16.205Z,27.04
2022-08-22T15:52:36.558Z,27.04
2022-08-22T15:53:47.173Z,27.27
2022-08-22T15:55:00.559Z,27.45
2022-08-22T15:56:20.745Z,27.34
2022-08-22T15:57:33.345Z,27.20
2022-08-22T15:58:49.650Z,27.18
2022-08-22T16:00:01.187Z,27.21
2022-08-22T16:01:20.479Z,27.31
2022-08-22T16:02:35.140Z,27.39
2022-08-22T16:04:03.803Z,27.41
2022-08-22T16:05:14.332Z,27.44
2022-08-22T16:06:54.895Z,27.50
2022-08-22T16:08:14.308Z,27.71
2022-08-22T16:09:49.096Z,27.94
2022-08-22T16:11:05.779Z,28.21
2022-08-22T16:12:20.457Z,28.36
2022-08-22T16:13:34.096Z,28.42
2022-08-22T16:14:47.550Z,28.35
2022-08-22T16:16:01.298Z,28.26
2022-08-22T16:17:29.285Z,28.24
2022-08-22T16:18:44.099Z,28.14
2022-08-22T16:19:51.639Z,28.14
2022-08-22T16:20:59.529Z,28.13
2022-08-22T16:22:09.039Z,28.21
2022-08-22T16:23:17.120Z,28.35
2022-08-22T16:24:25.251Z,28.52
2022-08-22T16:25:54.635Z,28.54
2022-08-22T16:27:02.720Z,28.66
2022-08-22T16:28:57.270Z,28.83
2022-08-22T16:30:10.713Z,28.92
2022-08-22T16:31:29.280Z,29.01
2022-08-22T16:32:37.780Z,29.14
2022-08-22T16:33:46.829Z,29.25
2022-08-22T16:34:54.968Z,29.24
2022-08-22T16:36:37.134Z,29.12
2022-08-22T16:37:51.774Z,29.03
2022-08-22T16:39:02.078Z,29.09
2022-08-22T16:40:15.809Z,29.27
2022-08-22T16:41:38.905Z,29.33
2022-08-22T16:42:48.899Z,29.15
2022-08-22T16:44:39.105Z,29.08
2022-08-22T16:45:47.997Z,28.98
2022-08-22T16:46:56.011Z,28.75
2022-08-22T16:48:36.525Z,28.80
2022-08-22T16:50:07.169Z,28.90
2022-08-22T16:51:22.847Z,28.88
2022-08-22T16:52:33.311Z,28.79
2022-08-22T16:53:45.683Z,28.81
2022-08-22T16:55:00.415Z,28.89
2022-08-22T16:56:40.889Z,28.78
2022-08-22T16:58:06.177Z,28.72
2022-08-22T16:59:40.118Z,28.75
2022-08-22T17:01:32.293Z,28.77
2022-08-22T17:02:40.617Z,28.62
2022-08-22T17:03:57.373Z,28.54
2022-08-22T17:06:03.415Z,28.72
2022-08-22T17:07:23.648Z,28.81
2022-08-22T17:08:58.888Z,28.66
2022-08-22T17:10:15.068Z,28.51
2022-08-22T17:11:40.626Z,28.57
2022-08-22T17:12:59.935Z,28.64
2022-08-22T17:14:28.449Z,28.48
2022-08-22T17:15:49.144Z,28.38
2022-08-22T17:17:07.026Z,28.47
2022-08-22T17:18:38.350Z,28.65
2022-08-22T17:20:01.830Z,28.81
2022-08-22T17:21:18.848Z,28.87
2022-08-22T17:22:35.024Z,28.96
2022-08-22T17:24:09.945Z,29.07
2022-08-22T17:25:57.504Z,28.89
2022-08-22T17:27:30.756Z,28.95
2022-08-22T17:28:43.422Z,28.93
2022-08-22T17:30:05.756Z,29.00
2022-08-22T17:31:44.876Z,29.14
2022-08-22T17:33:08.784Z,29.23
2022-08-22T17:34:46.246Z,29.38
2022-08-22T17:36:26.336Z,29.46
2022-08-22T17:37:47.277Z,29.53
2022-08-22T17:39:20.067Z,29.66
2022-08-22T17:40:48.428Z,29.85
2022-08-22T17:42:08.746Z,29.83
2022-08-22T17:43:33.474Z,29.72
2022-08-22T17:45:06.546Z,29.74
2022-08-22T17:46:45.273Z,29.76
2022-08-22T17:48:21.276Z,29.89
2022-08-22T17:49:48.546Z,30.20
2022-08-22T17:51:13.922Z,30.32